sensor_id;sensor_type;location;lat;lon;timestamp;pressure;altitude;pressure_sealevel;temperature;humidity
21357;BME280;10836;53.068;18.234;2023-02-22T00:00:29;101074.94;;;0.43;100.00
21357;BME280;10836;53.068;18.234;2023-02-22T00:03:24;101077.81;;;0.41;100.00
21357;BME280;10836;53.068;18.234;2023-02-22T00:05:59;101075.53;;;0.38;100.00
21357;BME280;10836;53.068;18.234;2023-02-22T00:08:27;101080.91;;;0.38;100.00
21357;BME280;10836;53.068;18.234;2023-02-22T00:11:01;101079.16;;;0.24;100.00
21357;BME280;10836;53.068;18.234;2023-02-22T00:13:29;101088.22;;;0.23;100.00
21357;BME280;10836;53.068;18.234;2023-02-22T00:15:57;101081.97;;;0.16;100.00
21357;BME280;10836;53.068;18.234;2023-02-22T00:18:25;101088.44;;;0.21;100.00
21357;BME280;10836;53.068;18.234;2023-02-22T00:20:56;101087.59;;;0.21;100.00
21357;BME280;10836;53.068;18.234;2023-02-22T00:23:28;101092.72;;;0.16;100.00
21357;BME280;10836;53.068;18.234;2023-02-22T00:25:57;101095.16;;;0.11;100.00
21357;BME280;10836;53.068;18.234;2023-02-22T00:28:25;101096.00;;;0.11;100.00
21357;BME280;10836;53.068;18.234;2023-02-22T00:30:52;101094.38;;;0.17;100.00
21357;BME280;10836;53.068;18.234;2023-02-22T00:33:21;101100.53;;;0.11;100.00
21357;BME280;10836;53.068;18.234;2023-02-22T00:35:48;101099.47;;;0.05;100.00
21357;BME280;10836;53.068;18.234;2023-02-22T00:38:17;101098.75;;;-0.10;100.00
21357;BME280;10836;53.068;18.234;2023-02-22T00:40:44;101106.88;;;-0.25;100.00
21357;BME280;10836;53.068;18.234;2023-02-22T00:43:11;101109.41;;;-0.38;100.00
21357;BME280;10836;53.068;18.234;2023-02-22T00:45:39;101103.41;;;-0.40;100.00
21357;BME280;10836;53.068;18.234;2023-02-22T00:48:07;101112.47;;;-0.41;100.00
21357;BME280;10836;53.068;18.234;2023-02-22T00:50:35;101106.47;;;-0.43;100.00
21357;BME280;10836;53.068;18.234;2023-02-22T00:53:04;101119.00;;;-0.50;100.00
21357;BME280;10836;53.068;18.234;2023-02-22T00:55:34;101120.72;;;-0.64;100.00
21357;BME280;10836;53.068;18.234;2023-02-22T00:58:02;101117.88;;;-0.77;100.00
21357;BME280;10836;53.068;18.234;2023-02-22T01:00:38;101116.03;;;-0.77;100.00
21357;BME280;10836;53.068;18.234;2023-02-22T01:03:08;101121.91;;;-0.88;100.00
21357;BME280;10836;53.068;18.234;2023-02-22T01:05:37;101116.28;;;-0.93;100.00
21357;BME280;10836;53.068;18.234;2023-02-22T01:08:06;101120.72;;;-1.00;100.00
21357;BME280;10836;53.068;18.234;2023-02-22T01:10:34;101121.66;;;-0.93;100.00
21357;BME280;10836;53.068;18.234;2023-02-22T01:13:04;101121.38;;;-0.98;100.00
21357;BME280;10836;53.068;18.234;2023-02-22T01:15:37;101127.66;;;-0.91;100.00
21357;BME280;10836;53.068;18.234;2023-02-22T01:18:05;101128.81;;;-0.79;100.00
21357;BME280;10836;53.068;18.234;2023-02-22T01:20:32;101137.75;;;-0.72;100.00
21357;BME280;10836;53.068;18.234;2023-02-22T01:23:00;101137.38;;;-0.69;100.00
21357;BME280;10836;53.068;18.234;2023-02-22T01:25:30;101137.75;;;-0.72;100.00
21357;BME280;10836;53.068;18.234;2023-02-22T01:27:59;101144.59;;;-0.69;100.00
21357;BME280;10836;53.068;18.234;2023-02-22T01:30:29;101142.38;;;-0.65;100.00
21357;BME280;10836;53.068;18.234;2023-02-22T01:33:00;101144.78;;;-0.71;100.00
21357;BME280;10836;53.068;18.234;2023-02-22T01:35:30;101147.19;;;-0.76;100.00
21357;BME280;10836;53.068;18.234;2023-02-22T01:37:58;101142.06;;;-0.92;100.00
21357;BME280;10836;53.068;18.234;2023-02-22T01:40:29;101149.75;;;-1.04;100.00
21357;BME280;10836;53.068;18.234;2023-02-22T01:43:03;101145.13;;;-1.10;100.00
21357;BME280;10836;53.068;18.234;2023-02-22T01:48:09;101149.66;;;-1.25;100.00
21357;BME280;10836;53.068;18.234;2023-02-22T01:50:49;101143.59;;;-1.33;100.00
21357;BME280;10836;53.068;18.234;2023-02-22T01:53:22;101148.31;;;-1.36;100.00
21357;BME280;10836;53.068;18.234;2023-02-22T01:55:51;101152.28;;;-1.31;100.00
21357;BME280;10836;53.068;18.234;2023-02-22T01:58:20;101153.53;;;-1.27;100.00
21357;BME280;10836;53.068;18.234;2023-02-22T02:00:48;101152.00;;;-1.37;100.00
21357;BME280;10836;53.068;18.234;2023-02-22T02:03:25;101156.72;;;-1.39;100.00
21357;BME280;10836;53.068;18.234;2023-02-22T02:05:56;101157.81;;;-1.48;100.00
21357;BME280;10836;53.068;18.234;2023-02-22T02:08:45;101161.94;;;-1.60;100.00
21357;BME280;10836;53.068;18.234;2023-02-22T02:11:22;101158.50;;;-1.69;100.00
21357;BME280;10836;53.068;18.234;2023-02-22T02:13:53;101168.50;;;-1.77;100.00
21357;BME280;10836;53.068;18.234;2023-02-22T02:16:23;101164.03;;;-1.85;100.00
21357;BME280;10836;53.068;18.234;2023-02-22T02:18:51;101164.22;;;-1.86;100.00
21357;BME280;10836;53.068;18.234;2023-02-22T02:24:38;101180.53;;;-1.96;100.00
21357;BME280;10836;53.068;18.234;2023-02-22T02:32:40;101182.50;;;-2.13;100.00
21357;BME280;10836;53.068;18.234;2023-02-22T02:35:20;101188.50;;;-2.11;100.00
21357;BME280;10836;53.068;18.234;2023-02-22T02:40:49;101187.09;;;-2.21;100.00
21357;BME280;10836;53.068;18.234;2023-02-22T02:45:56;101185.31;;;-2.29;100.00
21357;BME280;10836;53.068;18.234;2023-02-22T02:48:26;101184.00;;;-2.33;100.00
21357;BME280;10836;53.068;18.234;2023-02-22T02:50:57;101190.03;;;-2.39;100.00
21357;BME280;10836;53.068;18.234;2023-02-22T02:53:32;101191.72;;;-2.38;100.00
21357;BME280;10836;53.068;18.234;2023-02-22T02:56:01;101192.06;;;-2.41;100.00
21357;BME280;10836;53.068;18.234;2023-02-22T02:58:28;101198.38;;;-2.34;100.00
21357;BME280;10836;53.068;18.234;2023-02-22T03:00:58;101196.72;;;-2.35;100.00
21357;BME280;10836;53.068;18.234;2023-02-22T03:03:50;101197.66;;;-2.28;100.00
21357;BME280;10836;53.068;18.234;2023-02-22T03:11:28;101208.97;;;-2.18;100.00
21357;BME280;10836;53.068;18.234;2023-02-22T03:19:29;101216.09;;;-2.10;100.00
21357;BME280;10836;53.068;18.234;2023-02-22T03:22:08;101216.91;;;-2.10;100.00
21357;BME280;10836;53.068;18.234;2023-02-22T03:24:44;101216.34;;;-2.20;100.00
21357;BME280;10836;53.068;18.234;2023-02-22T03:27:32;101220.25;;;-2.08;100.00
21357;BME280;10836;53.068;18.234;2023-02-22T03:30:07;101221.88;;;-2.21;100.00
21357;BME280;10836;53.068;18.234;2023-02-22T03:32:38;101227.41;;;-2.23;100.00
21357;BME280;10836;53.068;18.234;2023-02-22T03:35:13;101222.84;;;-2.45;100.00
21357;BME280;10836;53.068;18.234;2023-02-22T03:37:45;101227.22;;;-2.52;100.00
21357;BME280;10836;53.068;18.234;2023-02-22T03:40:22;101224.84;;;-2.47;100.00
21357;BME280;10836;53.068;18.234;2023-02-22T03:42:59;101229.66;;;-2.65;100.00
21357;BME280;10836;53.068;18.234;2023-02-22T03:45:28;101230.66;;;-2.66;100.00
21357;BME280;10836;53.068;18.234;2023-02-22T03:48:05;101237.31;;;-2.62;100.00
21357;BME280;10836;53.068;18.234;2023-02-22T03:50:37;101237.66;;;-2.65;100.00
21357;BME280;10836;53.068;18.234;2023-02-22T03:53:06;101250.38;;;-2.67;100.00
21357;BME280;10836;53.068;18.234;2023-02-22T03:55:36;101247.53;;;-2.66;100.00
21357;BME280;10836;53.068;18.234;2023-02-22T03:58:07;101243.88;;;-2.73;100.00
21357;BME280;10836;53.068;18.234;2023-02-22T04:00:37;101242.72;;;-2.79;100.00
21357;BME280;10836;53.068;18.234;2023-02-22T04:03:04;101246.25;;;-2.86;100.00
21357;BME280;10836;53.068;18.234;2023-02-22T04:09:45;101250.97;;;-2.96;100.00
21357;BME280;10836;53.068;18.234;2023-02-22T04:12:12;101248.47;;;-2.98;100.00
21357;BME280;10836;53.068;18.234;2023-02-22T04:14:53;101253.31;;;-3.02;100.00
21357;BME280;10836;53.068;18.234;2023-02-22T04:17:22;101259.50;;;-3.01;100.00
21357;BME280;10836;53.068;18.234;2023-02-22T04:19:49;101264.84;;;-3.01;100.00
21357;BME280;10836;53.068;18.234;2023-02-22T04:22:18;101255.47;;;-2.97;100.00
21357;BME280;10836;53.068;18.234;2023-02-22T04:24:44;101260.00;;;-2.97;100.00
21357;BME280;10836;53.068;18.234;2023-02-22T04:27:12;101268.19;;;-2.99;100.00
21357;BME280;10836;53.068;18.234;2023-02-22T04:29:38;101262.53;;;-3.04;100.00
21357;BME280;10836;53.068;18.234;2023-02-22T04:32:06;101261.88;;;-3.06;100.00
21357;BME280;10836;53.068;18.234;2023-02-22T04:34:33;101263.16;;;-3.02;100.00
21357;BME280;10836;53.068;18.234;2023-02-22T04:37:00;101269.72;;;-3.05;100.00
21357;BME280;10836;53.068;18.234;2023-02-22T04:39:27;101275.56;;;-3.09;100.00
21357;BME280;10836;53.068;18.234;2023-02-22T04:41:55;101269.06;;;-3.15;100.00
21357;BME280;10836;53.068;18.234;2023-02-22T04:44:21;101270.25;;;-3.17;100.00
21357;BME280;10836;53.068;18.234;2023-02-22T04:46:49;101274.56;;;-3.08;100.00
21357;BME280;10836;53.068;18.234;2023-02-22T04:49:15;101275.75;;;-3.11;100.00
21357;BME280;10836;53.068;18.234;2023-02-22T04:51:44;101279.94;;;-3.24;100.00
21357;BME280;10836;53.068;18.234;2023-02-22T04:54:12;101283.09;;;-3.29;100.00
21357;BME280;10836;53.068;18.234;2023-02-22T04:56:43;101283.28;;;-3.22;100.00
21357;BME280;10836;53.068;18.234;2023-02-22T04:59:11;101289.28;;;-3.20;100.00
21357;BME280;10836;53.068;18.234;2023-02-22T05:01:41;101291.94;;;-3.20;100.00
21357;BME280;10836;53.068;18.234;2023-02-22T05:04:08;101292.59;;;-3.10;100.00
21357;BME280;10836;53.068;18.234;2023-02-22T05:06:35;101286.88;;;-2.99;100.00
21357;BME280;10836;53.068;18.234;2023-02-22T05:09:02;101283.84;;;-2.88;100.00
21357;BME280;10836;53.068;18.234;2023-02-22T05:11:29;101292.34;;;-2.84;100.00
21357;BME280;10836;53.068;18.234;2023-02-22T05:13:56;101288.81;;;-2.77;100.00
21357;BME280;10836;53.068;18.234;2023-02-22T05:16:23;101276.13;;;-2.75;100.00
21357;BME280;10836;53.068;18.234;2023-02-22T05:18:51;101286.13;;;-2.69;100.00
21357;BME280;10836;53.068;18.234;2023-02-22T05:21:18;101283.06;;;-2.57;100.00
21357;BME280;10836;53.068;18.234;2023-02-22T05:23:45;101290.38;;;-2.51;100.00
21357;BME280;10836;53.068;18.234;2023-02-22T05:26:12;101293.75;;;-2.57;100.00
21357;BME280;10836;53.068;18.234;2023-02-22T05:28:39;101295.91;;;-2.53;100.00
21357;BME280;10836;53.068;18.234;2023-02-22T05:31:07;101297.91;;;-2.55;100.00
21357;BME280;10836;53.068;18.234;2023-02-22T05:33:34;101300.06;;;-2.50;100.00
21357;BME280;10836;53.068;18.234;2023-02-22T05:36:01;101302.69;;;-2.73;100.00
21357;BME280;10836;53.068;18.234;2023-02-22T05:38:28;101300.53;;;-2.86;100.00
21357;BME280;10836;53.068;18.234;2023-02-22T05:40:55;101303.88;;;-2.76;100.00
21357;BME280;10836;53.068;18.234;2023-02-22T05:43:22;101315.56;;;-2.77;100.00
21357;BME280;10836;53.068;18.234;2023-02-22T05:45:49;101314.47;;;-2.59;100.00
21357;BME280;10836;53.068;18.234;2023-02-22T05:48:16;101322.78;;;-2.46;100.00
21357;BME280;10836;53.068;18.234;2023-02-22T05:50:43;101324.06;;;-2.26;100.00
21357;BME280;10836;53.068;18.234;2023-02-22T05:53:10;101323.22;;;-2.26;100.00
21357;BME280;10836;53.068;18.234;2023-02-22T05:55:37;101325.72;;;-2.25;100.00
21357;BME280;10836;53.068;18.234;2023-02-22T05:58:05;101335.13;;;-2.06;100.00
21357;BME280;10836;53.068;18.234;2023-02-22T06:00:33;101335.97;;;-2.06;100.00
21357;BME280;10836;53.068;18.234;2023-02-22T06:03:05;101340.28;;;-1.96;100.00
21357;BME280;10836;53.068;18.234;2023-02-22T06:05:35;101343.88;;;-1.81;100.00
21357;BME280;10836;53.068;18.234;2023-02-22T06:08:03;101339.00;;;-1.78;100.00
21357;BME280;10836;53.068;18.234;2023-02-22T06:10:30;101340.72;;;-1.85;100.00
21357;BME280;10836;53.068;18.234;2023-02-22T06:12:58;101347.31;;;-1.73;100.00
21357;BME280;10836;53.068;18.234;2023-02-22T06:15:27;101346.25;;;-1.63;100.00
21357;BME280;10836;53.068;18.234;2023-02-22T06:17:55;101356.13;;;-1.64;100.00
21357;BME280;10836;53.068;18.234;2023-02-22T06:20:24;101355.06;;;-1.55;100.00
21357;BME280;10836;53.068;18.234;2023-02-22T06:22:53;101362.06;;;-1.54;100.00
21357;BME280;10836;53.068;18.234;2023-02-22T06:25:23;101361.72;;;-1.51;100.00
21357;BME280;10836;53.068;18.234;2023-02-22T06:27:50;101366.00;;;-1.42;100.00
21357;BME280;10836;53.068;18.234;2023-02-22T06:30:20;101371.66;;;-1.59;100.00
21357;BME280;10836;53.068;18.234;2023-02-22T06:32:48;101360.53;;;-1.48;100.00
21357;BME280;10836;53.068;18.234;2023-02-22T06:35:15;101365.38;;;-1.29;100.00
21357;BME280;10836;53.068;18.234;2023-02-22T06:37:42;101365.81;;;-1.17;100.00
21357;BME280;10836;53.068;18.234;2023-02-22T06:40:10;101368.16;;;-1.37;100.00
21357;BME280;10836;53.068;18.234;2023-02-22T06:42:38;101366.63;;;-1.17;100.00
21357;BME280;10836;53.068;18.234;2023-02-22T06:45:05;101374.06;;;-1.04;100.00
21357;BME280;10836;53.068;18.234;2023-02-22T06:47:32;101378.34;;;-0.95;100.00
21357;BME280;10836;53.068;18.234;2023-02-22T06:50:03;101387.22;;;-0.80;100.00
21357;BME280;10836;53.068;18.234;2023-02-22T06:52:30;101388.38;;;-0.59;100.00
21357;BME280;10836;53.068;18.234;2023-02-22T06:54:57;101388.66;;;-0.40;100.00
21357;BME280;10836;53.068;18.234;2023-02-22T06:57:23;101391.81;;;-0.21;100.00
21357;BME280;10836;53.068;18.234;2023-02-22T06:59:50;101382.81;;;-0.14;100.00
21357;BME280;10836;53.068;18.234;2023-02-22T07:02:17;101388.38;;;-0.59;100.00
21357;BME280;10836;53.068;18.234;2023-02-22T07:04:44;101381.91;;;-0.50;100.00
21357;BME280;10836;53.068;18.234;2023-02-22T07:07:11;101385.22;;;-0.19;100.00
21357;BME280;10836;53.068;18.234;2023-02-22T07:09:38;101378.19;;;0.31;100.00
21357;BME280;10836;53.068;18.234;2023-02-22T07:12:05;101387.16;;;0.81;100.00
21357;BME280;10836;53.068;18.234;2023-02-22T07:14:33;101393.06;;;1.47;100.00
21357;BME280;10836;53.068;18.234;2023-02-22T07:17:00;101397.34;;;2.17;100.00
21357;BME280;10836;53.068;18.234;2023-02-22T07:19:27;101396.81;;;2.41;100.00
21357;BME280;10836;53.068;18.234;2023-02-22T07:21:54;101399.47;;;1.80;100.00
21357;BME280;10836;53.068;18.234;2023-02-22T07:24:26;101406.53;;;2.29;100.00
21357;BME280;10836;53.068;18.234;2023-02-22T07:26:56;101409.78;;;3.25;100.00
21357;BME280;10836;53.068;18.234;2023-02-22T07:29:23;101405.06;;;4.49;100.00
21357;BME280;10836;53.068;18.234;2023-02-22T07:31:49;101408.94;;;5.66;99.30
21357;BME280;10836;53.068;18.234;2023-02-22T07:34:17;101407.31;;;7.21;91.81
21357;BME280;10836;53.068;18.234;2023-02-22T07:36:44;101413.81;;;7.90;84.19
21357;BME280;10836;53.068;18.234;2023-02-22T07:39:11;101408.47;;;7.02;84.48
21357;BME280;10836;53.068;18.234;2023-02-22T07:41:37;101413.78;;;6.37;85.88
21357;BME280;10836;53.068;18.234;2023-02-22T07:44:13;101409.38;;;6.96;84.92
21357;BME280;10836;53.068;18.234;2023-02-22T07:46:40;101414.56;;;8.26;81.54
21357;BME280;10836;53.068;18.234;2023-02-22T07:49:07;101420.94;;;9.50;69.60
21357;BME280;10836;53.068;18.234;2023-02-22T07:51:34;101416.53;;;9.66;65.80
21357;BME280;10836;53.068;18.234;2023-02-22T07:54:01;101426.28;;;9.12;64.29
21357;BME280;10836;53.068;18.234;2023-02-22T07:56:28;101434.84;;;7.95;66.17
21357;BME280;10836;53.068;18.234;2023-02-22T07:58:55;101428.56;;;7.13;68.54
21357;BME280;10836;53.068;18.234;2023-02-22T08:01:22;101437.84;;;6.63;72.80
21357;BME280;10836;53.068;18.234;2023-02-22T08:03:50;101440.50;;;6.52;66.18
21357;BME280;10836;53.068;18.234;2023-02-22T08:06:18;101432.03;;;6.60;66.78
21357;BME280;10836;53.068;18.234;2023-02-22T08:08:46;101435.47;;;5.82;67.51
21357;BME280;10836;53.068;18.234;2023-02-22T08:11:13;101435.84;;;5.43;67.47
21357;BME280;10836;53.068;18.234;2023-02-22T08:13:41;101437.38;;;5.07;72.86
21357;BME280;10836;53.068;18.234;2023-02-22T08:16:08;101443.09;;;4.10;75.88
21357;BME280;10836;53.068;18.234;2023-02-22T08:18:35;101443.91;;;4.17;78.97
21357;BME280;10836;53.068;18.234;2023-02-22T08:21:04;101443.09;;;4.10;77.54
21357;BME280;10836;53.068;18.234;2023-02-22T08:23:31;101445.34;;;4.19;79.02
21357;BME280;10836;53.068;18.234;2023-02-22T08:26:10;101443.16;;;4.41;74.32
21357;BME280;10836;53.068;18.234;2023-02-22T08:28:41;101448.03;;;4.71;73.23
21357;BME280;10836;53.068;18.234;2023-02-22T08:31:08;101449.06;;;4.25;71.57
21357;BME280;10836;53.068;18.234;2023-02-22T08:33:36;101444.75;;;4.11;72.66
21357;BME280;10836;53.068;18.234;2023-02-22T08:36:03;101447.66;;;4.09;72.87
21357;BME280;10836;53.068;18.234;2023-02-22T08:38:31;101434.34;;;5.47;68.89
21357;BME280;10836;53.068;18.234;2023-02-22T08:40:59;101444.03;;;6.52;64.43
21357;BME280;10836;53.068;18.234;2023-02-22T08:43:27;101428.38;;;6.54;61.37
21357;BME280;10836;53.068;18.234;2023-02-22T08:45:54;101437.31;;;6.25;60.04
21357;BME280;10836;53.068;18.234;2023-02-22T08:48:24;101439.56;;;4.92;64.51
21357;BME280;10836;53.068;18.234;2023-02-22T08:50:51;101438.63;;;5.79;63.38
21357;BME280;10836;53.068;18.234;2023-02-22T08:53:18;101438.28;;;6.30;59.64
21357;BME280;10836;53.068;18.234;2023-02-22T08:55:45;101437.84;;;7.70;58.57
21357;BME280;10836;53.068;18.234;2023-02-22T08:58:12;101432.81;;;8.14;56.92
21357;BME280;10836;53.068;18.234;2023-02-22T09:00:40;101437.75;;;8.97;53.44
21357;BME280;10836;53.068;18.234;2023-02-22T09:03:13;101430.31;;;9.93;49.71
21357;BME280;10836;53.068;18.234;2023-02-22T09:05:41;101431.09;;;9.55;51.76
21357;BME280;10836;53.068;18.234;2023-02-22T09:08:09;101436.91;;;10.19;47.05
21357;BME280;10836;53.068;18.234;2023-02-22T09:10:37;101434.91;;;10.75;46.34
21357;BME280;10836;53.068;18.234;2023-02-22T09:13:04;101435.72;;;10.53;45.18
21357;BME280;10836;53.068;18.234;2023-02-22T09:15:32;101431.88;;;7.15;52.88
21357;BME280;10836;53.068;18.234;2023-02-22T09:18:03;101439.19;;;6.24;55.37
21357;BME280;10836;53.068;18.234;2023-02-22T09:20:31;101441.25;;;4.86;59.97
21357;BME280;10836;53.068;18.234;2023-02-22T09:22:58;101451.22;;;3.96;59.99
21357;BME280;10836;53.068;18.234;2023-02-22T09:25:25;101450.34;;;4.16;60.41
21357;BME280;10836;53.068;18.234;2023-02-22T09:27:54;101447.28;;;4.50;61.30
21357;BME280;10836;53.068;18.234;2023-02-22T09:30:25;101441.25;;;6.59;57.56
21357;BME280;10836;53.068;18.234;2023-02-22T09:32:54;101449.16;;;7.90;50.56
21357;BME280;10836;53.068;18.234;2023-02-22T09:35:21;101446.09;;;6.98;48.65
21357;BME280;10836;53.068;18.234;2023-02-22T09:37:59;101454.63;;;6.42;50.92
21357;BME280;10836;53.068;18.234;2023-02-22T09:40:28;101453.50;;;5.20;54.25
21357;BME280;10836;53.068;18.234;2023-02-22T09:45:53;101459.72;;;4.64;57.17
21357;BME280;10836;53.068;18.234;2023-02-22T09:48:32;101459.03;;;5.32;56.59
21357;BME280;10836;53.068;18.234;2023-02-22T09:51:07;101453.69;;;4.94;57.20
21357;BME280;10836;53.068;18.234;2023-02-22T09:53:44;101460.41;;;5.66;54.45
21357;BME280;10836;53.068;18.234;2023-02-22T09:56:15;101455.53;;;7.38;50.41
21357;BME280;10836;53.068;18.234;2023-02-22T09:58:47;101458.59;;;6.88;49.77
21357;BME280;10836;53.068;18.234;2023-02-22T10:04:00;101466.03;;;4.45;54.33
21357;BME280;10836;53.068;18.234;2023-02-22T10:06:30;101464.13;;;5.96;52.62
21357;BME280;10836;53.068;18.234;2023-02-22T10:09:02;101460.50;;;6.99;50.32
21357;BME280;10836;53.068;18.234;2023-02-22T10:11:50;101470.38;;;8.52;46.13
21357;BME280;10836;53.068;18.234;2023-02-22T10:17:18;101473.28;;;8.22;42.97
21357;BME280;10836;53.068;18.234;2023-02-22T10:19:52;101467.22;;;8.43;42.84
21357;BME280;10836;53.068;18.234;2023-02-22T10:22:53;101472.09;;;8.18;43.77
21357;BME280;10836;53.068;18.234;2023-02-22T10:25:25;101469.50;;;7.99;46.58
21357;BME280;10836;53.068;18.234;2023-02-22T10:28:14;101466.84;;;9.08;43.72
21357;BME280;10836;53.068;18.234;2023-02-22T10:30:56;101476.13;;;8.15;44.72
21357;BME280;10836;53.068;18.234;2023-02-22T10:33:38;101482.63;;;7.91;44.73
21357;BME280;10836;53.068;18.234;2023-02-22T10:36:18;101484.59;;;8.42;43.54
21357;BME280;10836;53.068;18.234;2023-02-22T10:38:58;101476.00;;;8.22;43.20
21357;BME280;10836;53.068;18.234;2023-02-22T10:41:33;101477.69;;;9.37;41.18
21357;BME280;10836;53.068;18.234;2023-02-22T10:44:01;101478.91;;;8.32;42.92
21357;BME280;10836;53.068;18.234;2023-02-22T10:46:31;101479.53;;;6.99;45.08
21357;BME280;10836;53.068;18.234;2023-02-22T10:49:04;101484.38;;;7.50;47.87
21357;BME280;10836;53.068;18.234;2023-02-22T10:51:33;101473.97;;;7.36;47.00
21357;BME280;10836;53.068;18.234;2023-02-22T10:54:18;101480.53;;;7.16;45.03
21357;BME280;10836;53.068;18.234;2023-02-22T10:56:52;101474.16;;;6.32;48.03
21357;BME280;10836;53.068;18.234;2023-02-22T10:59:28;101473.22;;;5.59;51.03
21357;BME280;10836;53.068;18.234;2023-02-22T11:01:56;101466.44;;;7.08;47.61
21357;BME280;10836;53.068;18.234;2023-02-22T11:04:23;101477.19;;;8.14;44.50
21357;BME280;10836;53.068;18.234;2023-02-22T11:09:26;101468.75;;;9.58;40.67
21357;BME280;10836;53.068;18.234;2023-02-22T11:12:18;101464.63;;;10.27;40.22
21357;BME280;10836;53.068;18.234;2023-02-22T11:14:46;101465.91;;;13.01;37.01
21357;BME280;10836;53.068;18.234;2023-02-22T11:17:18;101462.69;;;13.60;34.95
21357;BME280;10836;53.068;18.234;2023-02-22T11:19:48;101452.81;;;13.74;32.12
21357;BME280;10836;53.068;18.234;2023-02-22T11:22:30;101449.31;;;14.53;33.36
21357;BME280;10836;53.068;18.234;2023-02-22T11:25:02;101453.28;;;15.20;30.95
21357;BME280;10836;53.068;18.234;2023-02-22T11:27:38;101451.09;;;12.87;34.70
21357;BME280;10836;53.068;18.234;2023-02-22T11:30:29;101446.00;;;12.38;35.57
21357;BME280;10836;53.068;18.234;2023-02-22T11:33:15;101453.97;;;11.92;35.68
21357;BME280;10836;53.068;18.234;2023-02-22T11:35:55;101456.69;;;10.70;36.98
21357;BME280;10836;53.068;18.234;2023-02-22T11:38:30;101451.75;;;11.20;37.63
21357;BME280;10836;53.068;18.234;2023-02-22T11:41:15;101459.19;;;12.46;36.06
21357;BME280;10836;53.068;18.234;2023-02-22T11:43:46;101454.94;;;12.96;34.28
21357;BME280;10836;53.068;18.234;2023-02-22T11:46:17;101460.50;;;13.37;34.58
21357;BME280;10836;53.068;18.234;2023-02-22T11:49:01;101451.53;;;14.31;33.90
21357;BME280;10836;53.068;18.234;2023-02-22T11:57:07;101455.16;;;11.75;34.50
21357;BME280;10836;53.068;18.234;2023-02-22T12:00:26;101453.25;;;10.57;38.86
21357;BME280;10836;53.068;18.234;2023-02-22T12:06:10;101445.72;;;11.87;36.46
21357;BME280;10836;53.068;18.234;2023-02-22T12:09:02;101440.06;;;11.62;36.31
21357;BME280;10836;53.068;18.234;2023-02-22T12:12:03;101441.09;;;11.56;36.11
21357;BME280;10836;53.068;18.234;2023-02-22T12:14:43;101444.56;;;11.46;35.93
21357;BME280;10836;53.068;18.234;2023-02-22T12:17:17;101446.34;;;9.89;39.75
21357;BME280;10836;53.068;18.234;2023-02-22T12:19:50;101455.56;;;10.22;40.29
21357;BME280;10836;53.068;18.234;2023-02-22T12:24:56;101462.28;;;12.08;36.83
21357;BME280;10836;53.068;18.234;2023-02-22T12:27:52;101454.34;;;11.74;37.13
21357;BME280;10836;53.068;18.234;2023-02-22T12:30:22;101454.16;;;10.63;38.32
21357;BME280;10836;53.068;18.234;2023-02-22T12:32:57;101465.53;;;9.94;38.54
21357;BME280;10836;53.068;18.234;2023-02-22T12:35:34;101460.31;;;8.81;42.51
21357;BME280;10836;53.068;18.234;2023-02-22T12:38:13;101469.19;;;8.59;40.93
21357;BME280;10836;53.068;18.234;2023-02-22T12:40:57;101459.53;;;8.40;42.74
21357;BME280;10836;53.068;18.234;2023-02-22T12:43:29;101460.38;;;8.97;40.03
21357;BME280;10836;53.068;18.234;2023-02-22T12:46:05;101466.78;;;10.96;39.34
21357;BME280;10836;53.068;18.234;2023-02-22T12:51:30;101468.53;;;12.65;35.98
21357;BME280;10836;53.068;18.234;2023-02-22T12:56:33;101469.41;;;12.09;35.27
21357;BME280;10836;53.068;18.234;2023-02-22T13:01:43;101467.34;;;13.49;33.70
21357;BME280;10836;53.068;18.234;2023-02-22T13:04:12;101465.03;;;11.76;34.79
21357;BME280;10836;53.068;18.234;2023-02-22T13:06:58;101468.28;;;12.05;35.54
21357;BME280;10836;53.068;18.234;2023-02-22T13:15:09;101465.88;;;9.81;39.04
21357;BME280;10836;53.068;18.234;2023-02-22T13:17:58;101468.66;;;9.86;39.27
21357;BME280;10836;53.068;18.234;2023-02-22T13:20:37;101463.50;;;8.89;40.75
21357;BME280;10836;53.068;18.234;2023-02-22T13:23:17;101470.84;;;8.60;41.06
21357;BME280;10836;53.068;18.234;2023-02-22T13:26:13;101465.13;;;9.69;40.05
21357;BME280;10836;53.068;18.234;2023-02-22T13:28:56;101466.47;;;10.22;38.74
21357;BME280;10836;53.068;18.234;2023-02-22T13:34:34;101466.97;;;12.17;36.20
21357;BME280;10836;53.068;18.234;2023-02-22T13:54:03;101460.97;;;7.26;42.78
21357;BME280;10836;53.068;18.234;2023-02-22T13:56:31;101479.19;;;8.19;43.55
21357;BME280;10836;53.068;18.234;2023-02-22T13:59:01;101472.94;;;7.72;42.57
21357;BME280;10836;53.068;18.234;2023-02-22T14:01:35;101479.34;;;7.12;44.22
21357;BME280;10836;53.068;18.234;2023-02-22T14:06:55;101462.75;;;6.24;46.86
21357;BME280;10836;53.068;18.234;2023-02-22T14:09:52;101474.88;;;5.60;47.55
21357;BME280;10836;53.068;18.234;2023-02-22T14:18:05;101476.94;;;4.25;52.02
21357;BME280;10836;53.068;18.234;2023-02-22T14:20:36;101477.41;;;3.96;53.06
21357;BME280;10836;53.068;18.234;2023-02-22T14:25:49;101470.66;;;5.14;51.14
21357;BME280;10836;53.068;18.234;2023-02-22T14:31:06;101469.75;;;7.10;44.66
21357;BME280;10836;53.068;18.234;2023-02-22T14:34:04;101478.28;;;7.78;43.73
21357;BME280;10836;53.068;18.234;2023-02-22T14:47:39;101473.78;;;6.47;46.51
21357;BME280;10836;53.068;18.234;2023-02-22T14:50:17;101465.44;;;6.60;46.19
21357;BME280;10836;53.068;18.234;2023-02-22T14:53:19;101471.34;;;5.78;47.91